sensor_id;sensor_type;location;lat;lon;timestamp;temperature;humidity
31369;DHT22;18004;48.416;10.066;2023-04-22T00:00:38;10.20;99.90
31369;DHT22;18004;48.416;10.066;2023-04-22T00:03:05;10.30;99.90
31369;DHT22;18004;48.416;10.066;2023-04-22T00:05:33;10.40;99.90
31369;DHT22;18004;48.416;10.066;2023-04-22T00:07:59;10.40;99.90
31369;DHT22;18004;48.416;10.066;2023-04-22T00:10:26;10.20;99.90
31369;DHT22;18004;48.416;10.066;2023-04-22T00:12:52;10.20;99.90
31369;DHT22;18004;48.416;10.066;2023-04-22T00:15:18;10.20;99.90
31369;DHT22;18004;48.416;10.066;2023-04-22T00:17:47;10.10;99.90
31369;DHT22;18004;48.416;10.066;2023-04-22T00:20:13;10.10;99.90
31369;DHT22;18004;48.416;10.066;2023-04-22T00:22:39;10.20;99.90
31369;DHT22;18004;48.416;10.066;2023-04-22T00:25:06;10.20;99.90
31369;DHT22;18004;48.416;10.066;2023-04-22T00:27:32;10.20;99.90
31369;DHT22;18004;48.416;10.066;2023-04-22T00:29:57;10.20;99.90
31369;DHT22;18004;48.416;10.066;2023-04-22T00:32:23;10.20;99.90
31369;DHT22;18004;48.416;10.066;2023-04-22T00:34:49;10.20;99.90
31369;DHT22;18004;48.416;10.066;2023-04-22T00:37:15;10.30;99.90
31369;DHT22;18004;48.416;10.066;2023-04-22T00:39:41;10.30;99.90
31369;DHT22;18004;48.416;10.066;2023-04-22T00:42:06;10.20;99.90
31369;DHT22;18004;48.416;10.066;2023-04-22T00:44:32;10.30;99.90
31369;DHT22;18004;48.416;10.066;2023-04-22T00:47:00;10.20;99.90
31369;DHT22;18004;48.416;10.066;2023-04-22T00:49:26;10.20;99.90
31369;DHT22;18004;48.416;10.066;2023-04-22T00:51:52;10.20;99.90
31369;DHT22;18004;48.416;10.066;2023-04-22T00:54:18;10.20;99.90
31369;DHT22;18004;48.416;10.066;2023-04-22T00:56:44;10.20;99.90
31369;DHT22;18004;48.416;10.066;2023-04-22T00:59:10;10.10;99.90
31369;DHT22;18004;48.416;10.066;2023-04-22T01:01:37;10.00;99.90
31369;DHT22;18004;48.416;10.066;2023-04-22T01:04:03;10.00;99.90
31369;DHT22;18004;48.416;10.066;2023-04-22T01:06:29;10.00;99.90
31369;DHT22;18004;48.416;10.066;2023-04-22T01:08:58;9.90;99.90
31369;DHT22;18004;48.416;10.066;2023-04-22T01:11:24;9.80;99.90
31369;DHT22;18004;48.416;10.066;2023-04-22T01:13:50;9.80;99.90
31369;DHT22;18004;48.416;10.066;2023-04-22T01:16:17;9.80;99.90
31369;DHT22;18004;48.416;10.066;2023-04-22T01:18:43;9.70;99.90
31369;DHT22;18004;48.416;10.066;2023-04-22T01:21:09;9.40;99.90
31369;DHT22;18004;48.416;10.066;2023-04-22T01:23:35;9.40;99.90
31369;DHT22;18004;48.416;10.066;2023-04-22T01:26:01;9.20;99.90
31369;DHT22;18004;48.416;10.066;2023-04-22T01:28:27;9.20;99.90
31369;DHT22;18004;48.416;10.066;2023-04-22T01:30:54;9.30;99.90
31369;DHT22;18004;48.416;10.066;2023-04-22T01:33:20;9.20;99.90
31369;DHT22;18004;48.416;10.066;2023-04-22T01:35:46;8.90;99.90
31369;DHT22;18004;48.416;10.066;2023-04-22T01:38:12;8.80;99.90
31369;DHT22;18004;48.416;10.066;2023-04-22T01:40:38;9.00;99.90
31369;DHT22;18004;48.416;10.066;2023-04-22T01:43:04;9.00;99.90
31369;DHT22;18004;48.416;10.066;2023-04-22T01:45:30;9.00;99.90
31369;DHT22;18004;48.416;10.066;2023-04-22T01:47:56;9.10;99.90
31369;DHT22;18004;48.416;10.066;2023-04-22T01:50:22;9.10;99.90
31369;DHT22;18004;48.416;10.066;2023-04-22T01:52:49;9.10;99.90
31369;DHT22;18004;48.416;10.066;2023-04-22T01:55:15;9.10;99.90
31369;DHT22;18004;48.416;10.066;2023-04-22T01:57:41;9.10;99.90
31369;DHT22;18004;48.416;10.066;2023-04-22T02:00:07;9.10;99.90
31369;DHT22;18004;48.416;10.066;2023-04-22T02:02:33;9.10;99.90
31369;DHT22;18004;48.416;10.066;2023-04-22T02:04:59;9.10;99.90
31369;DHT22;18004;48.416;10.066;2023-04-22T02:07:25;9.10;99.90
31369;DHT22;18004;48.416;10.066;2023-04-22T02:09:52;9.20;99.90
31369;DHT22;18004;48.416;10.066;2023-04-22T02:12:17;9.20;99.90
31369;DHT22;18004;48.416;10.066;2023-04-22T02:14:43;9.20;99.90
31369;DHT22;18004;48.416;10.066;2023-04-22T02:17:09;9.20;99.90
31369;DHT22;18004;48.416;10.066;2023-04-22T02:19:35;9.20;99.90
31369;DHT22;18004;48.416;10.066;2023-04-22T02:22:01;9.30;99.90
31369;DHT22;18004;48.416;10.066;2023-04-22T02:24:27;9.30;99.90
31369;DHT22;18004;48.416;10.066;2023-04-22T02:26:52;9.20;99.90
31369;DHT22;18004;48.416;10.066;2023-04-22T02:29:18;9.20;99.90
31369;DHT22;18004;48.416;10.066;2023-04-22T02:31:44;9.20;99.90
31369;DHT22;18004;48.416;10.066;2023-04-22T02:34:10;9.20;99.90
31369;DHT22;18004;48.416;10.066;2023-04-22T02:36:35;9.20;99.90
31369;DHT22;18004;48.416;10.066;2023-04-22T02:39:01;9.20;99.90
31369;DHT22;18004;48.416;10.066;2023-04-22T02:41:28;9.20;99.90
31369;DHT22;18004;48.416;10.066;2023-04-22T02:43:55;9.20;99.90
31369;DHT22;18004;48.416;10.066;2023-04-22T02:46:20;9.10;99.90
31369;DHT22;18004;48.416;10.066;2023-04-22T02:48:46;9.10;99.90
31369;DHT22;18004;48.416;10.066;2023-04-22T02:51:14;9.10;99.90
31369;DHT22;18004;48.416;10.066;2023-04-22T02:53:40;9.10;99.90
31369;DHT22;18004;48.416;10.066;2023-04-22T02:56:06;9.00;99.90
31369;DHT22;18004;48.416;10.066;2023-04-22T02:58:33;8.90;99.90
31369;DHT22;18004;48.416;10.066;2023-04-22T03:00:59;8.90;99.90
31369;DHT22;18004;48.416;10.066;2023-04-22T03:03:25;8.90;99.90
31369;DHT22;18004;48.416;10.066;2023-04-22T03:05:51;9.00;99.90
31369;DHT22;18004;48.416;10.066;2023-04-22T03:08:18;8.90;99.90
31369;DHT22;18004;48.416;10.066;2023-04-22T03:10:44;8.90;99.90
31369;DHT22;18004;48.416;10.066;2023-04-22T03:13:11;8.80;99.90
31369;DHT22;18004;48.416;10.066;2023-04-22T03:15:41;8.70;99.90
31369;DHT22;18004;48.416;10.066;2023-04-22T03:18:07;8.70;99.90
31369;DHT22;18004;48.416;10.066;2023-04-22T03:20:34;8.70;99.90
31369;DHT22;18004;48.416;10.066;2023-04-22T03:23:00;8.70;99.90
31369;DHT22;18004;48.416;10.066;2023-04-22T03:25:26;8.70;99.90
31369;DHT22;18004;48.416;10.066;2023-04-22T03:27:51;8.70;99.90
31369;DHT22;18004;48.416;10.066;2023-04-22T03:30:17;8.70;99.90
31369;DHT22;18004;48.416;10.066;2023-04-22T03:32:43;8.70;99.90
31369;DHT22;18004;48.416;10.066;2023-04-22T03:35:09;8.70;99.90
31369;DHT22;18004;48.416;10.066;2023-04-22T03:37:35;8.70;99.90
31369;DHT22;18004;48.416;10.066;2023-04-22T03:40:01;8.70;99.90
31369;DHT22;18004;48.416;10.066;2023-04-22T03:42:27;8.70;99.90
31369;DHT22;18004;48.416;10.066;2023-04-22T03:44:53;8.80;99.90
31369;DHT22;18004;48.416;10.066;2023-04-22T03:47:19;8.80;99.90
31369;DHT22;18004;48.416;10.066;2023-04-22T03:49:45;8.80;99.90
31369;DHT22;18004;48.416;10.066;2023-04-22T03:52:11;8.70;99.90
31369;DHT22;18004;48.416;10.066;2023-04-22T03:54:37;8.70;99.90
31369;DHT22;18004;48.416;10.066;2023-04-22T03:57:02;8.70;99.90
31369;DHT22;18004;48.416;10.066;2023-04-22T03:59:28;8.70;99.90
31369;DHT22;18004;48.416;10.066;2023-04-22T04:01:54;8.70;99.90
31369;DHT22;18004;48.416;10.066;2023-04-22T04:04:20;8.70;99.90
31369;DHT22;18004;48.416;10.066;2023-04-22T04:06:47;8.70;99.90
31369;DHT22;18004;48.416;10.066;2023-04-22T04:09:13;8.60;99.90
31369;DHT22;18004;48.416;10.066;2023-04-22T04:11:39;8.60;99.90
31369;DHT22;18004;48.416;10.066;2023-04-22T04:14:05;8.60;99.90
31369;DHT22;18004;48.416;10.066;2023-04-22T04:16:30;8.70;99.90
31369;DHT22;18004;48.416;10.066;2023-04-22T04:18:56;8.60;99.90
31369;DHT22;18004;48.416;10.066;2023-04-22T04:21:22;8.50;99.90
31369;DHT22;18004;48.416;10.066;2023-04-22T04:23:48;8.50;99.90
31369;DHT22;18004;48.416;10.066;2023-04-22T04:26:14;8.50;99.90
31369;DHT22;18004;48.416;10.066;2023-04-22T04:28:40;8.50;99.90
31369;DHT22;18004;48.416;10.066;2023-04-22T04:31:06;8.50;99.90
31369;DHT22;18004;48.416;10.066;2023-04-22T04:33:32;8.50;99.90
31369;DHT22;18004;48.416;10.066;2023-04-22T04:35:58;8.50;99.90
31369;DHT22;18004;48.416;10.066;2023-04-22T04:38:25;8.50;99.90
31369;DHT22;18004;48.416;10.066;2023-04-22T04:40:51;8.60;99.90
31369;DHT22;18004;48.416;10.066;2023-04-22T04:43:18;8.50;99.90
31369;DHT22;18004;48.416;10.066;2023-04-22T04:45:44;8.40;99.90
31369;DHT22;18004;48.416;10.066;2023-04-22T04:48:13;8.50;99.90
31369;DHT22;18004;48.416;10.066;2023-04-22T04:50:42;8.50;99.90
31369;DHT22;18004;48.416;10.066;2023-04-22T04:53:09;8.50;99.90
31369;DHT22;18004;48.416;10.066;2023-04-22T04:55:34;8.50;99.90
31369;DHT22;18004;48.416;10.066;2023-04-22T04:58:00;8.40;99.90
31369;DHT22;18004;48.416;10.066;2023-04-22T05:00:26;8.40;99.90
31369;DHT22;18004;48.416;10.066;2023-04-22T05:02:52;8.40;99.90
31369;DHT22;18004;48.416;10.066;2023-04-22T05:05:18;8.40;99.90
31369;DHT22;18004;48.416;10.066;2023-04-22T05:07:44;8.40;99.90
31369;DHT22;18004;48.416;10.066;2023-04-22T05:10:10;8.50;99.90
31369;DHT22;18004;48.416;10.066;2023-04-22T05:12:36;8.50;99.90
31369;DHT22;18004;48.416;10.066;2023-04-22T05:15:02;8.60;99.90
31369;DHT22;18004;48.416;10.066;2023-04-22T05:17:27;8.60;99.90
31369;DHT22;18004;48.416;10.066;2023-04-22T05:19:53;8.60;99.90
31369;DHT22;18004;48.416;10.066;2023-04-22T05:22:20;8.70;99.90
31369;DHT22;18004;48.416;10.066;2023-04-22T05:24:46;8.70;99.90
31369;DHT22;18004;48.416;10.066;2023-04-22T05:27:11;8.80;99.90
31369;DHT22;18004;48.416;10.066;2023-04-22T05:29:37;8.80;99.90
31369;DHT22;18004;48.416;10.066;2023-04-22T05:32:03;8.80;99.90
31369;DHT22;18004;48.416;10.066;2023-04-22T05:34:29;8.90;99.90
31369;DHT22;18004;48.416;10.066;2023-04-22T05:36:56;8.90;99.90
31369;DHT22;18004;48.416;10.066;2023-04-22T05:39:21;8.90;99.90
31369;DHT22;18004;48.416;10.066;2023-04-22T05:41:47;8.90;99.90
31369;DHT22;18004;48.416;10.066;2023-04-22T05:44:13;9.00;99.90
31369;DHT22;18004;48.416;10.066;2023-04-22T05:46:39;9.10;99.90
31369;DHT22;18004;48.416;10.066;2023-04-22T05:49:05;9.10;99.90
31369;DHT22;18004;48.416;10.066;2023-04-22T05:51:31;9.20;99.90
31369;DHT22;18004;48.416;10.066;2023-04-22T05:53:57;9.20;99.90
31369;DHT22;18004;48.416;10.066;2023-04-22T05:56:23;9.20;99.90
31369;DHT22;18004;48.416;10.066;2023-04-22T05:58:49;9.20;99.90
31369;DHT22;18004;48.416;10.066;2023-04-22T06:01:14;9.30;99.90
31369;DHT22;18004;48.416;10.066;2023-04-22T06:03:40;9.40;99.90
31369;DHT22;18004;48.416;10.066;2023-04-22T06:06:06;9.40;99.90
31369;DHT22;18004;48.416;10.066;2023-04-22T06:08:32;9.40;99.90
31369;DHT22;18004;48.416;10.066;2023-04-22T06:10:58;9.50;99.90
31369;DHT22;18004;48.416;10.066;2023-04-22T06:13:24;9.60;99.90
31369;DHT22;18004;48.416;10.066;2023-04-22T06:15:51;9.70;99.90
31369;DHT22;18004;48.416;10.066;2023-04-22T06:18:16;9.70;99.90
31369;DHT22;18004;48.416;10.066;2023-04-22T06:20:42;9.70;99.90
31369;DHT22;18004;48.416;10.066;2023-04-22T06:23:08;9.70;99.90
31369;DHT22;18004;48.416;10.066;2023-04-22T06:25:34;9.80;99.90
31369;DHT22;18004;48.416;10.066;2023-04-22T06:28:00;9.80;99.90
31369;DHT22;18004;48.416;10.066;2023-04-22T06:30:26;9.90;99.90
31369;DHT22;18004;48.416;10.066;2023-04-22T06:32:52;10.00;99.90
31369;DHT22;18004;48.416;10.066;2023-04-22T06:35:20;10.10;99.90
31369;DHT22;18004;48.416;10.066;2023-04-22T06:37:47;10.20;99.90
31369;DHT22;18004;48.416;10.066;2023-04-22T06:40:13;10.20;99.90
31369;DHT22;18004;48.416;10.066;2023-04-22T06:42:40;10.30;99.90
31369;DHT22;18004;48.416;10.066;2023-04-22T06:45:06;10.40;99.90
31369;DHT22;18004;48.416;10.066;2023-04-22T06:47:33;10.40;99.90
31369;DHT22;18004;48.416;10.066;2023-04-22T06:50:01;10.40;99.90
31369;DHT22;18004;48.416;10.066;2023-04-22T06:52:27;10.40;99.90
31369;DHT22;18004;48.416;10.066;2023-04-22T06:54:52;10.40;99.90
31369;DHT22;18004;48.416;10.066;2023-04-22T06:57:18;10.40;99.90
31369;DHT22;18004;48.416;10.066;2023-04-22T06:59:44;10.50;99.90
31369;DHT22;18004;48.416;10.066;2023-04-22T07:02:10;10.60;99.90
31369;DHT22;18004;48.416;10.066;2023-04-22T07:04:36;10.60;99.90
31369;DHT22;18004;48.416;10.066;2023-04-22T07:07:01;10.70;99.90
31369;DHT22;18004;48.416;10.066;2023-04-22T07:09:28;10.90;99.90
31369;DHT22;18004;48.416;10.066;2023-04-22T07:11:53;11.00;99.90
31369;DHT22;18004;48.416;10.066;2023-04-22T07:14:19;11.00;99.90
31369;DHT22;18004;48.416;10.066;2023-04-22T07:16:45;11.10;99.90
31369;DHT22;18004;48.416;10.066;2023-04-22T07:19:11;11.20;99.90
31369;DHT22;18004;48.416;10.066;2023-04-22T07:21:37;11.30;99.90
31369;DHT22;18004;48.416;10.066;2023-04-22T07:24:03;11.40;99.90
31369;DHT22;18004;48.416;10.066;2023-04-22T07:26:29;11.50;99.90
31369;DHT22;18004;48.416;10.066;2023-04-22T07:28:57;11.40;99.90
31369;DHT22;18004;48.416;10.066;2023-04-22T07:31:23;11.70;99.90
31369;DHT22;18004;48.416;10.066;2023-04-22T07:33:49;12.00;99.90
31369;DHT22;18004;48.416;10.066;2023-04-22T07:36:15;11.90;99.90
31369;DHT22;18004;48.416;10.066;2023-04-22T07:38:40;12.20;99.90
31369;DHT22;18004;48.416;10.066;2023-04-22T07:41:06;12.60;99.90
31369;DHT22;18004;48.416;10.066;2023-04-22T07:43:32;12.90;98.70
31369;DHT22;18004;48.416;10.066;2023-04-22T07:45:58;12.90;97.00
31369;DHT22;18004;48.416;10.066;2023-04-22T07:48:23;13.00;95.10
31369;DHT22;18004;48.416;10.066;2023-04-22T07:50:49;13.20;95.30
31369;DHT22;18004;48.416;10.066;2023-04-22T07:53:15;13.40;95.30
31369;DHT22;18004;48.416;10.066;2023-04-22T07:55:42;13.60;94.70
31369;DHT22;18004;48.416;10.066;2023-04-22T07:58:07;13.60;92.70
31369;DHT22;18004;48.416;10.066;2023-04-22T08:00:33;13.90;93.50
31369;DHT22;18004;48.416;10.066;2023-04-22T08:03:00;14.20;92.80
31369;DHT22;18004;48.416;10.066;2023-04-22T08:05:26;14.40;86.40
31369;DHT22;18004;48.416;10.066;2023-04-22T08:07:51;14.80;90.50
31369;DHT22;18004;48.416;10.066;2023-04-22T08:10:17;14.90;83.00
31369;DHT22;18004;48.416;10.066;2023-04-22T08:12:43;14.80;73.30
31369;DHT22;18004;48.416;10.066;2023-04-22T08:15:09;14.70;77.00
31369;DHT22;18004;48.416;10.066;2023-04-22T08:17:35;14.80;76.40
31369;DHT22;18004;48.416;10.066;2023-04-22T08:20:01;15.00;78.80
31369;DHT22;18004;48.416;10.066;2023-04-22T08:22:26;15.40;83.50
31369;DHT22;18004;48.416;10.066;2023-04-22T08:24:52;15.30;67.60
31369;DHT22;18004;48.416;10.066;2023-04-22T08:27:20;15.60;72.30
31369;DHT22;18004;48.416;10.066;2023-04-22T08:29:46;15.80;57.40
31369;DHT22;18004;48.416;10.066;2023-04-22T08:32:12;15.90;57.50
31369;DHT22;18004;48.416;10.066;2023-04-22T08:34:38;16.10;52.70
31369;DHT22;18004;48.416;10.066;2023-04-22T08:37:04;15.70;61.70
31369;DHT22;18004;48.416;10.066;2023-04-22T08:39:29;15.90;52.50
31369;DHT22;18004;48.416;10.066;2023-04-22T08:41:56;16.20;51.00
31369;DHT22;18004;48.416;10.066;2023-04-22T08:44:22;15.90;36.00
31369;DHT22;18004;48.416;10.066;2023-04-22T08:46:50;15.90;42.50
31369;DHT22;18004;48.416;10.066;2023-04-22T08:49:18;16.10;35.70
31369;DHT22;18004;48.416;10.066;2023-04-22T08:51:45;15.90;35.90
31369;DHT22;18004;48.416;10.066;2023-04-22T08:54:11;16.00;43.60
31369;DHT22;18004;48.416;10.066;2023-04-22T08:56:42;15.80;47.50
31369;DHT22;18004;48.416;10.066;2023-04-22T08:59:12;16.00;54.80
31369;DHT22;18004;48.416;10.066;2023-04-22T09:01:41;15.90;51.20
31369;DHT22;18004;48.416;10.066;2023-04-22T09:12:05;16.90;44.40
31369;DHT22;18004;48.416;10.066;2023-04-22T09:18:46;17.20;33.70
31369;DHT22;18004;48.416;10.066;2023-04-22T09:21:15;17.20;29.00
31369;DHT22;18004;48.416;10.066;2023-04-22T09:24:02;17.10;33.10
31369;DHT22;18004;48.416;10.066;2023-04-22T09:30:34;17.50;30.90
31369;DHT22;18004;48.416;10.066;2023-04-22T09:41:16;18.10;32.20
31369;DHT22;18004;48.416;10.066;2023-04-22T09:59:11;17.60;24.50
31369;DHT22;18004;48.416;10.066;2023-04-22T10:09:29;18.10;25.30
31369;DHT22;18004;48.416;10.066;2023-04-22T10:12:18;18.30;19.80
31369;DHT22;18004;48.416;10.066;2023-04-22T10:21:47;18.90;16.10
31369;DHT22;18004;48.416;10.066;2023-04-22T10:24:33;19.60;16.90
31369;DHT22;18004;48.416;10.066;2023-04-22T10:27:19;20.10;15.20
31369;DHT22;18004;48.416;10.066;2023-04-22T10:29:54;20.20;14.20
31369;DHT22;18004;48.416;10.066;2023-04-22T10:32:53;19.90;15.50
31369;DHT22;18004;48.416;10.066;2023-04-22T10:50:18;20.10;13.10
31369;DHT22;18004;48.416;10.066;2023-04-22T10:56:25;19.80;13.00
31369;DHT22;18004;48.416;10.066;2023-04-22T10:58:57;19.90;12.50
31369;DHT22;18004;48.416;10.066;2023-04-22T11:04:43;19.70;12.60
31369;DHT22;18004;48.416;10.066;2023-04-22T11:07:31;20.00;16.20
31369;DHT22;18004;48.416;10.066;2023-04-22T11:13:28;20.00;12.60
31369;DHT22;18004;48.416;10.066;2023-04-22T11:15:54;20.40;12.70
31369;DHT22;18004;48.416;10.066;2023-04-22T11:18:33;20.70;13.50
31369;DHT22;18004;48.416;10.066;2023-04-22T11:21:26;20.50;11.20
31369;DHT22;18004;48.416;10.066;2023-04-22T11:25:16;20.60;12.10
31369;DHT22;18004;48.416;10.066;2023-04-22T11:43:08;22.00;6.70
31369;DHT22;18004;48.416;10.066;2023-04-22T11:48:53;21.40;6.40
31369;DHT22;18004;48.416;10.066;2023-04-22T11:51:19;21.10;7.60
31369;DHT22;18004;48.416;10.066;2023-04-22T12:42:36;23.10;1.90
31369;DHT22;18004;48.416;10.066;2023-04-22T12:50:11;23.30;2.10
31369;DHT22;18004;48.416;10.066;2023-04-22T13:34:52;23.30;1.00
31369;DHT22;18004;48.416;10.066;2023-04-22T17:07:30;20.00;1.30
31369;DHT22;18004;48.416;10.066;2023-04-22T17:14:31;19.80;1.20
31369;DHT22;18004;48.416;10.066;2023-04-22T17:21:21;19.60;1.30
31369;DHT22;18004;48.416;10.066;2023-04-22T17:27:45;19.20;2.00
31369;DHT22;18004;48.416;10.066;2023-04-22T17:30:11;19.10;3.50
31369;DHT22;18004;48.416;10.066;2023-04-22T17:32:37;19.00;3.40
31369;DHT22;18004;48.416;10.066;2023-04-22T17:35:12;18.80;4.10
31369;DHT22;18004;48.416;10.066;2023-04-22T17:37:47;18.70;4.60
31369;DHT22;18004;48.416;10.066;2023-04-22T17:44:07;18.60;5.60
31369;DHT22;18004;48.416;10.066;2023-04-22T17:51:22;18.50;6.30
31369;DHT22;18004;48.416;10.066;2023-04-22T17:54:10;18.40;6.60
31369;DHT22;18004;48.416;10.066;2023-04-22T17:57:10;18.40;7.20
31369;DHT22;18004;48.416;10.066;2023-04-22T18:00:04;18.30;10.50
31369;DHT22;18004;48.416;10.066;2023-04-22T18:06:54;18.30;15.00
31369;DHT22;18004;48.416;10.066;2023-04-22T18:10:10;18.30;17.20
31369;DHT22;18004;48.416;10.066;2023-04-22T18:12:39;18.30;15.50
31369;DHT22;18004;48.416;10.066;2023-04-22T18:15:24;18.20;15.90
31369;DHT22;18004;48.416;10.066;2023-04-22T18:41:09;17.50;28.70
31369;DHT22;18004;48.416;10.066;2023-04-22T18:46:27;17.50;30.40
31369;DHT22;18004;48.416;10.066;2023-04-22T18:49:46;17.50;26.60
31369;DHT22;18004;48.416;10.066;2023-04-22T18:52:18;17.50;26.80
31369;DHT22;18004;48.416;10.066;2023-04-22T18:54:44;17.40;27.90
31369;DHT22;18004;48.416;10.066;2023-04-22T18:57:19;17.30;28.20
31369;DHT22;18004;48.416;10.066;2023-04-22T18:59:58;17.30;29.00
31369;DHT22;18004;48.416;10.066;2023-04-22T19:02:30;17.20;30.20
31369;DHT22;18004;48.416;10.066;2023-04-22T19:04:56;17.20;31.70
31369;DHT22;18004;48.416;10.066;2023-04-22T19:07:21;17.20;31.70
31369;DHT22;18004;48.416;10.066;2023-04-22T19:09:47;17.20;32.40
31369;DHT22;18004;48.416;10.066;2023-04-22T19:12:14;17.20;33.90
31369;DHT22;18004;48.416;10.066;2023-04-22T19:14:43;17.10;33.60
31369;DHT22;18004;48.416;10.066;2023-04-22T19:17:15;17.10;37.10
31369;DHT22;18004;48.416;10.066;2023-04-22T19:19:51;17.10;37.10
31369;DHT22;18004;48.416;10.066;2023-04-22T19:22:18;17.10;37.10
31369;DHT22;18004;48.416;10.066;2023-04-22T19:24:47;17.10;37.10
31369;DHT22;18004;48.416;10.066;2023-04-22T19:27:31;17.10;38.00
31369;DHT22;18004;48.416;10.066;2023-04-22T19:30:32;17.10;39.20
31369;DHT22;18004;48.416;10.066;2023-04-22T19:41:02;16.90;44.70
31369;DHT22;18004;48.416;10.066;2023-04-22T19:44:29;16.80;46.50
31369;DHT22;18004;48.416;10.066;2023-04-22T19:48:00;16.80;48.50
31369;DHT22;18004;48.416;10.066;2023-04-22T19:51:56;16.80;48.90
31369;DHT22;18004;48.416;10.066;2023-04-22T19:55:25;16.60;45.60
31369;DHT22;18004;48.416;10.066;2023-04-22T19:58:29;16.40;43.80
31369;DHT22;18004;48.416;10.066;2023-04-22T20:01:00;16.20;43.70
31369;DHT22;18004;48.416;10.066;2023-04-22T20:18:29;16.30;44.90
31369;DHT22;18004;48.416;10.066;2023-04-22T20:21:38;16.30;45.10
31369;DHT22;18004;48.416;10.066;2023-04-22T20:32:05;16.30;42.70
31369;DHT22;18004;48.416;10.066;2023-04-22T20:34:32;16.30;44.50
31369;DHT22;18004;48.416;10.066;2023-04-22T20:41:05;16.20;46.50
31369;DHT22;18004;48.416;10.066;2023-04-22T20:44:11;16.10;49.10
31369;DHT22;18004;48.416;10.066;2023-04-22T20:47:11;16.10;49.20
31369;DHT22;18004;48.416;10.066;2023-04-22T20:49:39;16.00;51.60
31369;DHT22;18004;48.416;10.066;2023-04-22T20:52:31;16.00;51.70
31369;DHT22;18004;48.416;10.066;2023-04-22T20:56:17;15.90;53.10
31369;DHT22;18004;48.416;10.066;2023-04-22T20:58:50;15.90;53.20
31369;DHT22;18004;48.416;10.066;2023-04-22T21:01:15;15.90;53.70
31369;DHT22;18004;48.416;10.066;2023-04-22T21:03:48;15.80;57.00
31369;DHT22;18004;48.416;10.066;2023-04-22T21:06:17;15.70;53.10
31369;DHT22;18004;48.416;10.066;2023-04-22T21:15:11;15.70;53.90
31369;DHT22;18004;48.416;10.066;2023-04-22T21:20:43;15.60;57.30
31369;DHT22;18004;48.416;10.066;2023-04-22T21:23:10;15.60;57.80
31369;DHT22;18004;48.416;10.066;2023-04-22T21:28:36;15.60;60.10
31369;DHT22;18004;48.416;10.066;2023-04-22T21:31:05;15.50;56.00
31369;DHT22;18004;48.416;10.066;2023-04-22T21:37:14;15.60;58.40
31369;DHT22;18004;48.416;10.066;2023-04-22T21:39:40;15.50;57.10
31369;DHT22;18004;48.416;10.066;2023-04-22T21:42:06;15.40;60.30
31369;DHT22;18004;48.416;10.066;2023-04-22T21:44:35;15.40;60.10
31369;DHT22;18004;48.416;10.066;2023-04-22T21:47:07;15.40;61.40
31369;DHT22;18004;48.416;10.066;2023-04-22T21:49:36;15.40;61.70
31369;DHT22;18004;48.416;10.066;2023-04-22T21:52:05;15.40;62.50
31369;DHT22;18004;48.416;10.066;2023-04-22T21:54:36;15.40;61.40
31369;DHT22;18004;48.416;10.066;2023-04-22T21:57:12;15.30;63.50
31369;DHT22;18004;48.416;10.066;2023-04-22T22:03:31;15.30;65.00
31369;DHT22;18004;48.416;10.066;2023-04-22T22:06:00;15.30;66.10
31369;DHT22;18004;48.416;10.066;2023-04-22T22:08:39;15.30;67.90
31369;DHT22;18004;48.416;10.066;2023-04-22T22:11:05;15.30;67.80
31369;DHT22;18004;48.416;10.066;2023-04-22T22:13:33;15.30;70.30
31369;DHT22;18004;48.416;10.066;2023-04-22T22:15:59;15.30;71.10
31369;DHT22;18004;48.416;10.066;2023-04-22T22:18:26;15.20;72.00
31369;DHT22;18004;48.416;10.066;2023-04-22T22:20:52;15.20;72.10
31369;DHT22;18004;48.416;10.066;2023-04-22T22:23:18;15.20;70.90
31369;DHT22;18004;48.416;10.066;2023-04-22T22:25:49;15.10;70.90
31369;DHT22;18004;48.416;10.066;2023-04-22T22:28:15;15.10;70.30
31369;DHT22;18004;48.416;10.066;2023-04-22T22:30:43;15.10;68.90
31369;DHT22;18004;48.416;10.066;2023-04-22T22:33:09;15.00;70.30
31369;DHT22;18004;48.416;10.066;2023-04-22T22:35:35;15.00;70.80
31369;DHT22;18004;48.416;10.066;2023-04-22T22:38:01;14.90;71.60
31369;DHT22;18004;48.416;10.066;2023-04-22T22:40:27;14.90;72.40
31369;DHT22;18004;48.416;10.066;2023-04-22T22:42:53;14.80;76.10
31369;DHT22;18004;48.416;10.066;2023-04-22T22:45:19;14.80;75.80
31369;DHT22;18004;48.416;10.066;2023-04-22T22:47:45;14.80;78.40
31369;DHT22;18004;48.416;10.066;2023-04-22T22:50:11;14.70;78.90
31369;DHT22;18004;48.416;10.066;2023-04-22T22:52:36;14.70;80.50
31369;DHT22;18004;48.416;10.066;2023-04-22T22:55:02;14.60;81.50
31369;DHT22;18004;48.416;10.066;2023-04-22T22:57:28;14.60;82.90
31369;DHT22;18004;48.416;10.066;2023-04-22T22:59:54;14.60;82.60
31369;DHT22;18004;48.416;10.066;2023-04-22T23:02:20;14.60;82.00
31369;DHT22;18004;48.416;10.066;2023-04-22T23:04:45;14.60;82.40
31369;DHT22;18004;48.416;10.066;2023-04-22T23:07:11;14.50;82.80
31369;DHT22;18004;48.416;10.066;2023-04-22T23:09:39;14.50;85.60
31369;DHT22;18004;48.416;10.066;2023-04-22T23:12:05;14.40;85.40
31369;DHT22;18004;48.416;10.066;2023-04-22T23:14:30;14.40;85.80
31369;DHT22;18004;48.416;10.066;2023-04-22T23:16:57;14.40;85.70
31369;DHT22;18004;48.416;10.066;2023-04-22T23:19:24;14.40;87.30
31369;DHT22;18004;48.416;10.066;2023-04-22T23:21:50;14.40;87.90
31369;DHT22;18004;48.416;10.066;2023-04-22T23:24:19;14.40;90.00
31369;DHT22;18004;48.416;10.066;2023-04-22T23:26:45;14.40;90.00
31369;DHT22;18004;48.416;10.066;2023-04-22T23:29:11;14.30;90.00
31369;DHT22;18004;48.416;10.066;2023-04-22T23:31:38;14.30;89.40
31369;DHT22;18004;48.416;10.066;2023-04-22T23:34:05;14.30;90.80
31369;DHT22;18004;48.416;10.066;2023-04-22T23:36:33;14.20;92.30
31369;DHT22;18004;48.416;10.066;2023-04-22T23:39:04;14.10;92.80
31369;DHT22;18004;48.416;10.066;2023-04-22T23:41:31;14.00;93.40
31369;DHT22;18004;48.416;10.066;2023-04-22T23:43:57;13.90;95.00
31369;DHT22;18004;48.416;10.066;2023-04-22T23:46:23;13.90;94.00
31369;DHT22;18004;48.416;10.066;2023-04-22T23:48:49;14.00;93.90
31369;DHT22;18004;48.416;10.066;2023-04-22T23:51:14;14.10;93.30
31369;DHT22;18004;48.416;10.066;2023-04-22T23:53:45;14.10;93.70
31369;DHT22;18004;48.416;10.066;2023-04-22T23:56:12;14.10;93.10
31369;DHT22;18004;48.416;10.066;2023-04-22T23:58:38;14.10;93.20
